Spartanburg, SC

10:30 AM EDT on May 27, 2017 (GMT -0400)
Spartanburg Downtown Memorial

Weather History for KSPA - November, 2012

Change the Weather History Date:

Wednesday, November 14, 2012

  Actual Average (KGSP) Record (KGSP)
Temperature  
Mean Temperature 45 °F -  
Max Temperature 53 °F 59 °F 79 °F (2007)
Min Temperature 37 °F 37 °F 20 °F (1906)
Degree Days  
Heating Degree Days 20    
Moisture  
Dew Point 32 °F    
Average Humidity 60    
Maximum Humidity 81    
Minimum Humidity 44    
Precipitation  
Precipitation 0.00 in - - ()
Sea Level Pressure  
Sea Level Pressure 30.38 in    
Wind  
Wind Speed 8 mph (NE)    
Max Wind Speed 17 mph    
Max Gust Speed 23 mph    
Visibility 10 miles    
Events      
Averages and records for this station are not official NWS values.
T = Trace of Precipitation, MM = Missing Value Source: NWS Daily Summary

Daily Weather History Graph

Daily Weather History Graph

Search for Another Location

Airport or City:

Trip Planner

Search our weather history database for the weather conditions in past years. The results will help you decide how hot, cold, wet, or windy it might be!

Date:

Astronomy

Nov. 14, 2012 Rise Set
Actual Time 7:01 AM EST 5:22 PM EST
Civil Twilight 6:34 AM EST 5:49 PM EST
Nautical Twilight 6:04 AM EST 6:20 PM EST
Astronomical Twilight 5:34 AM EST 6:50 PM EST
Moon 7:47 AM EST (11/14) 6:12 PM EST (11/14)
Length of Visible Light 11h 14m
Length of Day
10h 21m
New Moon, 1% of the Moon is Illuminated
Nov 14
New Moon
Nov 20
First Quarter
Nov 28
Full
Dec 6
Last Quarter
Dec 13
New

Hourly Weather History & Observations

Time (EST) Temp. Windchill Dew Point Humidity Pressure Visibility Wind Dir Wind Speed Gust Speed Precip Events Conditions
12:15 AM 42.8 °F 39.3 °F 32.0 °F 66% 30.38 in 10.0 mi NE 5.8 mph - N/A   Clear
12:35 AM 42.8 °F 39.3 °F 32.0 °F 66% 30.38 in 10.0 mi NE 5.8 mph - N/A   Clear
12:55 AM 42.8 °F 38.6 °F 32.0 °F 66% 30.37 in 10.0 mi NE 6.9 mph - N/A   Clear
1:15 AM 41.0 °F 37.1 °F 32.0 °F 70% 30.37 in 10.0 mi NE 5.8 mph - N/A   Clear
1:35 AM 41.0 °F 37.1 °F 32.0 °F 70% 30.36 in 10.0 mi NE 5.8 mph - N/A   Clear
1:55 AM 41.0 °F 37.1 °F 32.0 °F 70% 30.37 in 10.0 mi NE 5.8 mph - N/A   Clear
2:15 AM 41.0 °F 37.1 °F 32.0 °F 70% 30.37 in 10.0 mi NE 5.8 mph - N/A   Clear
2:35 AM 41.0 °F 35.8 °F 32.0 °F 70% 30.37 in 10.0 mi NE 8.1 mph - N/A   Clear
2:55 AM 41.0 °F 35.8 °F 30.2 °F 65% 30.38 in 10.0 mi NE 8.1 mph - N/A   Clear
3:15 AM 41.0 °F 35.8 °F 30.2 °F 65% 30.38 in 10.0 mi NE 8.1 mph - N/A   Clear
3:35 AM 41.0 °F 35.8 °F 30.2 °F 65% 30.38 in 10.0 mi NE 8.1 mph - N/A   Clear
3:55 AM 39.2 °F 34.2 °F 30.2 °F 70% 30.38 in 10.0 mi NE 6.9 mph - N/A   Clear
4:15 AM 39.2 °F 34.2 °F 30.2 °F 70% 30.39 in 10.0 mi NE 6.9 mph - N/A   Clear
4:35 AM 37.4 °F 32.1 °F 32.0 °F 81% 30.40 in 10.0 mi NNE 6.9 mph - N/A   Clear
4:55 AM 37.4 °F 32.1 °F 32.0 °F 81% 30.39 in 10.0 mi NNE 6.9 mph - N/A   Clear
5:15 AM 37.4 °F 32.1 °F 32.0 °F 81% 30.40 in 10.0 mi NE 6.9 mph - N/A   Clear
5:35 AM 37.4 °F 31.4 °F 32.0 °F 81% 30.41 in 10.0 mi NNE 8.1 mph - N/A   Clear
5:55 AM 37.4 °F 31.4 °F 32.0 °F 81% 30.42 in 10.0 mi NNE 8.1 mph - N/A   Clear
6:15 AM 37.4 °F 32.1 °F 32.0 °F 81% 30.42 in 10.0 mi NE 6.9 mph - N/A   Clear
6:35 AM 37.4 °F 32.1 °F 32.0 °F 81% 30.42 in 10.0 mi NE 6.9 mph - N/A   Clear
7:15 AM 37.4 °F 31.4 °F 32.0 °F 81% 30.44 in 10.0 mi NE 8.1 mph - N/A   Clear
7:35 AM 37.4 °F 31.4 °F 32.0 °F 81% 30.44 in 10.0 mi NNE 8.1 mph - N/A   Clear
8:15 AM 39.2 °F 32.5 °F 32.0 °F 75% 30.45 in 10.0 mi NE 10.4 mph - N/A   Clear
8:35 AM 41.0 °F 34.7 °F 32.0 °F 70% 30.46 in 10.0 mi NE 10.4 mph - N/A   Clear
8:55 AM 41.0 °F 34.3 °F 32.0 °F 70% 30.46 in 10.0 mi NE 11.5 mph - N/A   Clear
9:15 AM 42.8 °F 37.5 °F 32.0 °F 66% 30.46 in 10.0 mi NE 9.2 mph 16.1 mph N/A   Clear
9:35 AM 42.8 °F 36.6 °F 30.2 °F 61% 30.47 in 10.0 mi NE 11.5 mph 19.6 mph N/A   Clear
9:55 AM 44.6 °F 38.1 °F 30.2 °F 57% 30.47 in 10.0 mi NE 13.8 mph 18.4 mph N/A   Clear
10:15 AM 44.6 °F 38.4 °F 32.0 °F 61% 30.47 in 10.0 mi NE 12.7 mph 18.4 mph N/A   Clear
10:35 AM 46.4 °F 41.1 °F 32.0 °F 57% 30.46 in 10.0 mi ENE 11.5 mph 18.4 mph N/A   Clear
10:55 AM 46.4 °F 39.8 °F 32.0 °F 57% 30.45 in 7.0 mi NE 16.1 mph 23.0 mph N/A   Clear
11:15 AM 48.2 °F - 30.2 °F 50% 30.45 in 10.0 mi NNE 17.3 mph - N/A   Clear
11:35 AM 48.2 °F - 32.0 °F 54% 30.44 in 5.0 mi NE 13.8 mph 20.7 mph N/A   Haze
12:15 PM 50.0 °F - 32.0 °F 50% 30.42 in 10.0 mi East 10.4 mph 16.1 mph N/A   Clear
12:35 PM 50.0 °F - 32.0 °F 50% 30.40 in 10.0 mi NE 9.2 mph - N/A   Clear
12:55 PM 51.8 °F - 32.0 °F 47% 30.38 in 10.0 mi ENE 6.9 mph - N/A   Clear
1:15 PM 51.8 °F - 32.0 °F 47% 30.37 in 10.0 mi NE 8.1 mph - N/A   Clear
1:35 PM 51.8 °F - 32.0 °F 47% 30.37 in 10.0 mi NNE 5.8 mph 17.3 mph N/A   Clear
1:55 PM 51.8 °F - 32.0 °F 47% 30.37 in 10.0 mi NNE 10.4 mph - N/A   Clear
2:15 PM 53.6 °F - 32.0 °F 44% 30.35 in 10.0 mi East 8.1 mph - N/A   Clear
2:35 PM 53.6 °F - 32.0 °F 44% 30.34 in 10.0 mi NNE 8.1 mph 18.4 mph N/A   Clear
2:55 PM 51.8 °F - 32.0 °F 47% 30.34 in 10.0 mi ENE 8.1 mph - N/A   Scattered Clouds
3:15 PM 53.6 °F - 32.0 °F 44% 30.32 in 10.0 mi East 8.1 mph - N/A   Scattered Clouds
3:35 PM 51.8 °F - 32.0 °F 47% 30.32 in 10.0 mi East 8.1 mph - N/A   Mostly Cloudy
4:15 PM 51.8 °F - 32.0 °F 47% 30.32 in 10.0 mi ENE 5.8 mph - N/A   Mostly Cloudy
4:35 PM 51.8 °F - 32.0 °F 47% 30.33 in 10.0 mi NE 4.6 mph - N/A   Mostly Cloudy
4:55 PM 51.8 °F - 32.0 °F 47% 30.33 in 10.0 mi NE 3.5 mph - N/A   Overcast
5:15 PM 51.8 °F - 32.0 °F 47% 30.33 in 10.0 mi ENE 5.8 mph - N/A   Overcast
5:35 PM 50.0 °F - 32.0 °F 50% 30.33 in 10.0 mi NE 6.9 mph - N/A   Overcast
5:55 PM 50.0 °F - 32.0 °F 50% 30.33 in 10.0 mi NE 5.8 mph - N/A   Overcast
6:15 PM 50.0 °F - 32.0 °F 50% 30.34 in 10.0 mi NE 6.9 mph - N/A   Overcast
6:35 PM 50.0 °F - 32.0 °F 50% 30.35 in 10.0 mi North 5.8 mph - N/A   Overcast
7:15 PM 50.0 °F - 32.0 °F 50% 30.36 in 10.0 mi NE 5.8 mph - N/A   Overcast
7:35 PM 50.0 °F - 32.0 °F 50% 30.35 in 10.0 mi NNE 8.1 mph - N/A   Overcast
8:15 PM 48.2 °F - 32.0 °F 54% 30.35 in 10.0 mi NE 5.8 mph - N/A   Scattered Clouds
8:35 PM 48.2 °F - 32.0 °F 54% 30.35 in 10.0 mi NE 8.1 mph - N/A   Mostly Cloudy
8:55 PM 48.2 °F - 32.0 °F 54% 30.36 in 10.0 mi NE 8.1 mph - N/A   Overcast
9:15 PM 48.2 °F - 32.0 °F 54% 30.35 in 10.0 mi NE 6.9 mph - N/A   Overcast
9:35 PM 46.4 °F 41.9 °F 32.0 °F 57% 30.35 in 10.0 mi NE 9.2 mph - N/A   Scattered Clouds
9:55 PM 46.4 °F 44.3 °F 32.0 °F 57% 30.35 in 10.0 mi NE 4.6 mph - N/A   Scattered Clouds
10:15 PM 46.4 °F 42.4 °F 32.0 °F 57% 30.35 in 10.0 mi NE 8.1 mph - N/A   Scattered Clouds
10:35 PM 46.4 °F 42.9 °F 32.0 °F 57% 30.34 in 10.0 mi NE 6.9 mph - N/A   Clear
10:55 PM 46.4 °F 41.9 °F 32.0 °F 57% 30.33 in 10.0 mi NE 9.2 mph - N/A   Scattered Clouds
11:15 PM 46.4 °F 41.5 °F 32.0 °F 57% 30.32 in 10.0 mi ENE 10.4 mph - N/A   Scattered Clouds
11:35 PM 46.4 °F 42.4 °F 32.0 °F 57% 30.32 in 10.0 mi NE 8.1 mph - N/A   Clear
11:55 PM 44.6 °F 40.2 °F 32.0 °F 61% 30.32 in 10.0 mi NNE 8.1 mph - N/A   Scattered Clouds